sensor_id;sensor_type;location;lat;lon;timestamp;pressure;altitude;pressure_sealevel;temperature;humidity
81387;BME280;70842;50.744;7.114;2024-01-30T00:00:40;102303.06;;;11.82;59.40
81387;BME280;70842;50.744;7.114;2024-01-30T00:03:06;102296.59;;;11.72;59.58
81387;BME280;70842;50.744;7.114;2024-01-30T00:05:32;102297.84;;;11.81;59.53
81387;BME280;70842;50.744;7.114;2024-01-30T00:07:59;102293.84;;;11.58;60.10
81387;BME280;70842;50.744;7.114;2024-01-30T00:10:25;102304.69;;;11.55;60.15
81387;BME280;70842;50.744;7.114;2024-01-30T00:12:52;102290.81;;;11.50;60.59
81387;BME280;70842;50.744;7.114;2024-01-30T00:15:19;102287.50;;;11.46;60.52
81387;BME280;70842;50.744;7.114;2024-01-30T00:17:45;102300.03;;;11.58;60.22
81387;BME280;70842;50.744;7.114;2024-01-30T00:20:12;102290.63;;;11.53;60.40
81387;BME280;70842;50.744;7.114;2024-01-30T00:22:38;102290.91;;;11.48;60.51
81387;BME280;70842;50.744;7.114;2024-01-30T00:25:05;102292.06;;;11.29;61.12
81387;BME280;70842;50.744;7.114;2024-01-30T00:27:31;102290.31;;;11.43;60.51
81387;BME280;70842;50.744;7.114;2024-01-30T00:29:58;102286.91;;;11.41;60.48
81387;BME280;70842;50.744;7.114;2024-01-30T00:32:24;102287.56;;;11.15;61.57
81387;BME280;70842;50.744;7.114;2024-01-30T00:34:50;102285.56;;;11.34;60.89
81387;BME280;70842;50.744;7.114;2024-01-30T00:37:17;102283.13;;;11.45;60.26
81387;BME280;70842;50.744;7.114;2024-01-30T00:39:44;102286.53;;;11.47;60.62
81387;BME280;70842;50.744;7.114;2024-01-30T00:42:10;102285.50;;;11.50;60.28
81387;BME280;70842;50.744;7.114;2024-01-30T00:44:37;102281.03;;;11.36;60.76
81387;BME280;70842;50.744;7.114;2024-01-30T00:47:05;102282.72;;;11.37;60.99
81387;BME280;70842;50.744;7.114;2024-01-30T00:49:31;102281.91;;;11.21;61.24
81387;BME280;70842;50.744;7.114;2024-01-30T00:51:58;102280.53;;;11.30;61.22
81387;BME280;70842;50.744;7.114;2024-01-30T00:54:25;102277.50;;;11.36;60.86
81387;BME280;70842;50.744;7.114;2024-01-30T00:56:51;102276.78;;;11.48;60.62
81387;BME280;70842;50.744;7.114;2024-01-30T00:59:17;102272.50;;;11.45;60.65
81387;BME280;70842;50.744;7.114;2024-01-30T01:01:44;102275.34;;;11.42;60.67
81387;BME280;70842;50.744;7.114;2024-01-30T01:04:10;102279.31;;;11.49;60.28
81387;BME280;70842;50.744;7.114;2024-01-30T01:06:37;102278.16;;;11.39;60.52
81387;BME280;70842;50.744;7.114;2024-01-30T01:09:03;102279.75;;;11.28;61.05
81387;BME280;70842;50.744;7.114;2024-01-30T01:11:30;102273.59;;;11.27;61.08
81387;BME280;70842;50.744;7.114;2024-01-30T01:13:57;102269.06;;;11.14;61.43
81387;BME280;70842;50.744;7.114;2024-01-30T01:16:24;102270.69;;;11.16;61.42
81387;BME280;70842;50.744;7.114;2024-01-30T01:18:50;102269.28;;;10.95;62.29
81387;BME280;70842;50.744;7.114;2024-01-30T01:21:17;102266.88;;;11.06;61.88
81387;BME280;70842;50.744;7.114;2024-01-30T01:23:43;102278.75;;;11.15;61.78
81387;BME280;70842;50.744;7.114;2024-01-30T01:26:10;102273.53;;;11.13;61.50
81387;BME280;70842;50.744;7.114;2024-01-30T01:28:36;102280.03;;;11.23;61.52
81387;BME280;70842;50.744;7.114;2024-01-30T01:31:03;102273.00;;;11.22;61.19
81387;BME280;70842;50.744;7.114;2024-01-30T01:33:32;102272.81;;;11.25;61.11
81387;BME280;70842;50.744;7.114;2024-01-30T01:36:00;102278.63;;;11.32;61.02
81387;BME280;70842;50.744;7.114;2024-01-30T01:38:28;102277.41;;;11.37;60.69
81387;BME280;70842;50.744;7.114;2024-01-30T01:40:55;102270.66;;;11.32;61.05
81387;BME280;70842;50.744;7.114;2024-01-30T01:43:21;102254.28;;;11.10;61.65
81387;BME280;70842;50.744;7.114;2024-01-30T01:45:48;102261.66;;;11.05;61.80
81387;BME280;70842;50.744;7.114;2024-01-30T01:48:14;102268.97;;;10.85;62.60
81387;BME280;70842;50.744;7.114;2024-01-30T01:50:42;102259.78;;;10.91;62.60
81387;BME280;70842;50.744;7.114;2024-01-30T01:53:09;102262.44;;;11.07;62.26
81387;BME280;70842;50.744;7.114;2024-01-30T01:55:36;102263.88;;;11.12;61.89
81387;BME280;70842;50.744;7.114;2024-01-30T01:58:03;102269.66;;;11.19;61.48
81387;BME280;70842;50.744;7.114;2024-01-30T02:00:31;102274.34;;;11.29;61.40
81387;BME280;70842;50.744;7.114;2024-01-30T02:02:59;102271.53;;;11.32;61.29
81387;BME280;70842;50.744;7.114;2024-01-30T02:05:26;102262.34;;;11.08;61.70
81387;BME280;70842;50.744;7.114;2024-01-30T02:07:53;102267.19;;;11.16;61.84
81387;BME280;70842;50.744;7.114;2024-01-30T02:10:20;102265.38;;;11.32;61.17
81387;BME280;70842;50.744;7.114;2024-01-30T02:12:48;102258.25;;;11.03;61.99
81387;BME280;70842;50.744;7.114;2024-01-30T02:15:15;102259.28;;;11.00;61.99
81387;BME280;70842;50.744;7.114;2024-01-30T02:17:41;102257.38;;;11.02;61.75
81387;BME280;70842;50.744;7.114;2024-01-30T02:20:08;102256.97;;;10.94;62.24
81387;BME280;70842;50.744;7.114;2024-01-30T02:22:36;102258.03;;;11.21;61.49
81387;BME280;70842;50.744;7.114;2024-01-30T02:25:02;102257.84;;;11.24;61.31
81387;BME280;70842;50.744;7.114;2024-01-30T02:27:29;102246.47;;;11.22;61.40
81387;BME280;70842;50.744;7.114;2024-01-30T02:29:55;102247.56;;;11.34;60.72
81387;BME280;70842;50.744;7.114;2024-01-30T02:32:22;102248.41;;;11.34;60.83
81387;BME280;70842;50.744;7.114;2024-01-30T02:34:48;102246.69;;;11.33;61.12
81387;BME280;70842;50.744;7.114;2024-01-30T02:37:16;102246.88;;;11.30;60.83
81387;BME280;70842;50.744;7.114;2024-01-30T02:39:43;102252.34;;;11.27;61.06
81387;BME280;70842;50.744;7.114;2024-01-30T02:42:09;102253.34;;;11.40;60.20
81387;BME280;70842;50.744;7.114;2024-01-30T02:44:35;102257.53;;;11.44;60.30
81387;BME280;70842;50.744;7.114;2024-01-30T02:47:02;102251.47;;;11.42;60.17
81387;BME280;70842;50.744;7.114;2024-01-30T02:49:29;102249.19;;;11.36;60.56
81387;BME280;70842;50.744;7.114;2024-01-30T02:51:55;102252.94;;;11.03;61.18
81387;BME280;70842;50.744;7.114;2024-01-30T02:54:23;102240.66;;;11.16;60.99
81387;BME280;70842;50.744;7.114;2024-01-30T02:56:49;102240.19;;;10.93;61.69
81387;BME280;70842;50.744;7.114;2024-01-30T02:59:16;102244.38;;;11.13;61.43
81387;BME280;70842;50.744;7.114;2024-01-30T03:01:45;102247.41;;;11.21;61.10
81387;BME280;70842;50.744;7.114;2024-01-30T03:04:13;102237.16;;;11.15;61.22
81387;BME280;70842;50.744;7.114;2024-01-30T03:06:44;102241.75;;;11.27;60.91
81387;BME280;70842;50.744;7.114;2024-01-30T03:09:11;102241.13;;;11.08;61.50
81387;BME280;70842;50.744;7.114;2024-01-30T03:11:37;102240.94;;;11.11;61.21
81387;BME280;70842;50.744;7.114;2024-01-30T03:14:04;102240.38;;;10.90;61.65
81387;BME280;70842;50.744;7.114;2024-01-30T03:16:31;102235.44;;;11.14;61.29
81387;BME280;70842;50.744;7.114;2024-01-30T03:18:57;102238.75;;;10.88;61.66
81387;BME280;70842;50.744;7.114;2024-01-30T03:21:23;102233.81;;;11.12;61.17
81387;BME280;70842;50.744;7.114;2024-01-30T03:23:50;102231.63;;;11.04;61.61
81387;BME280;70842;50.744;7.114;2024-01-30T03:26:16;102236.47;;;11.12;60.95
81387;BME280;70842;50.744;7.114;2024-01-30T03:28:43;102230.34;;;10.95;61.72
81387;BME280;70842;50.744;7.114;2024-01-30T03:31:09;102226.94;;;10.93;61.56
81387;BME280;70842;50.744;7.114;2024-01-30T03:33:36;102222.94;;;10.86;61.78
81387;BME280;70842;50.744;7.114;2024-01-30T03:36:04;102232.63;;;10.72;62.32
81387;BME280;70842;50.744;7.114;2024-01-30T03:38:31;102229.09;;;10.87;62.13
81387;BME280;70842;50.744;7.114;2024-01-30T03:40:59;102233.72;;;10.68;62.49
81387;BME280;70842;50.744;7.114;2024-01-30T03:43:26;102235.75;;;10.94;61.86
81387;BME280;70842;50.744;7.114;2024-01-30T03:45:53;102228.13;;;10.88;61.88
81387;BME280;70842;50.744;7.114;2024-01-30T03:48:20;102231.38;;;10.93;61.68
81387;BME280;70842;50.744;7.114;2024-01-30T03:50:47;102232.59;;;10.56;62.88
81387;BME280;70842;50.744;7.114;2024-01-30T03:53:13;102232.97;;;10.81;62.53
81387;BME280;70842;50.744;7.114;2024-01-30T03:55:40;102227.16;;;10.75;62.39
81387;BME280;70842;50.744;7.114;2024-01-30T03:58:06;102228.53;;;10.51;62.69
81387;BME280;70842;50.744;7.114;2024-01-30T04:00:32;102229.91;;;10.58;62.70
81387;BME280;70842;50.744;7.114;2024-01-30T04:02:59;102228.25;;;10.40;63.38
81387;BME280;70842;50.744;7.114;2024-01-30T04:05:25;102226.91;;;10.33;63.65
81387;BME280;70842;50.744;7.114;2024-01-30T04:07:52;102221.25;;;10.54;63.08
81387;BME280;70842;50.744;7.114;2024-01-30T04:10:18;102217.66;;;10.71;62.75
81387;BME280;70842;50.744;7.114;2024-01-30T04:12:45;102219.25;;;10.73;62.58
81387;BME280;70842;50.744;7.114;2024-01-30T04:15:11;102216.72;;;10.72;62.58
81387;BME280;70842;50.744;7.114;2024-01-30T04:17:40;102215.44;;;10.48;63.25
81387;BME280;70842;50.744;7.114;2024-01-30T04:20:07;102213.03;;;10.74;62.73
81387;BME280;70842;50.744;7.114;2024-01-30T04:22:34;102217.22;;;10.63;62.77
81387;BME280;70842;50.744;7.114;2024-01-30T04:25:00;102213.13;;;10.73;62.47
81387;BME280;70842;50.744;7.114;2024-01-30T04:27:27;102206.81;;;10.60;62.46
81387;BME280;70842;50.744;7.114;2024-01-30T04:29:53;102200.69;;;10.73;62.16
81387;BME280;70842;50.744;7.114;2024-01-30T04:32:19;102198.16;;;10.56;62.30
81387;BME280;70842;50.744;7.114;2024-01-30T04:34:46;102206.28;;;10.53;62.75
81387;BME280;70842;50.744;7.114;2024-01-30T04:37:12;102206.72;;;10.61;62.95
81387;BME280;70842;50.744;7.114;2024-01-30T04:39:39;102210.28;;;10.60;62.43
81387;BME280;70842;50.744;7.114;2024-01-30T04:42:05;102208.25;;;10.50;62.89
81387;BME280;70842;50.744;7.114;2024-01-30T04:44:35;102204.06;;;10.77;62.19
81387;BME280;70842;50.744;7.114;2024-01-30T04:47:01;102200.97;;;10.69;62.28
81387;BME280;70842;50.744;7.114;2024-01-30T04:49:28;102201.75;;;10.71;62.18
81387;BME280;70842;50.744;7.114;2024-01-30T04:51:55;102182.00;;;10.61;61.98
81387;BME280;70842;50.744;7.114;2024-01-30T04:54:22;102194.56;;;10.73;62.49
81387;BME280;70842;50.744;7.114;2024-01-30T04:56:49;102191.06;;;10.57;62.57
81387;BME280;70842;50.744;7.114;2024-01-30T04:59:15;102200.03;;;10.70;62.56
81387;BME280;70842;50.744;7.114;2024-01-30T05:01:42;102187.53;;;10.87;61.76
81387;BME280;70842;50.744;7.114;2024-01-30T05:04:09;102196.50;;;10.85;61.84
81387;BME280;70842;50.744;7.114;2024-01-30T05:06:39;102199.19;;;10.99;61.26
81387;BME280;70842;50.744;7.114;2024-01-30T05:09:06;102209.66;;;11.02;61.10
81387;BME280;70842;50.744;7.114;2024-01-30T05:11:37;102208.59;;;10.59;62.42
81387;BME280;70842;50.744;7.114;2024-01-30T05:14:05;102204.41;;;10.71;62.09
81387;BME280;70842;50.744;7.114;2024-01-30T05:16:32;102222.53;;;10.47;62.73
81387;BME280;70842;50.744;7.114;2024-01-30T05:18:59;102216.09;;;10.67;62.26
81387;BME280;70842;50.744;7.114;2024-01-30T05:21:28;102219.41;;;10.86;61.62
81387;BME280;70842;50.744;7.114;2024-01-30T05:23:55;102222.78;;;10.58;62.62
81387;BME280;70842;50.744;7.114;2024-01-30T05:26:21;102213.09;;;10.88;61.66
81387;BME280;70842;50.744;7.114;2024-01-30T05:28:49;102199.41;;;10.96;61.47
81387;BME280;70842;50.744;7.114;2024-01-30T05:31:15;102202.66;;;10.85;61.70
81387;BME280;70842;50.744;7.114;2024-01-30T05:33:42;102212.78;;;10.79;61.94
81387;BME280;70842;50.744;7.114;2024-01-30T05:36:11;102210.53;;;10.87;61.57
81387;BME280;70842;50.744;7.114;2024-01-30T05:38:38;102215.22;;;10.82;61.61
81387;BME280;70842;50.744;7.114;2024-01-30T05:41:04;102201.31;;;10.63;62.24
81387;BME280;70842;50.744;7.114;2024-01-30T05:43:31;102221.59;;;10.33;62.86
81387;BME280;70842;50.744;7.114;2024-01-30T05:45:57;102213.13;;;10.57;62.34
81387;BME280;70842;50.744;7.114;2024-01-30T05:48:23;102205.94;;;10.59;62.15
81387;BME280;70842;50.744;7.114;2024-01-30T05:50:50;102205.78;;;10.47;62.31
81387;BME280;70842;50.744;7.114;2024-01-30T05:53:16;102196.47;;;10.40;62.83
81387;BME280;70842;50.744;7.114;2024-01-30T05:55:43;102192.34;;;10.18;63.05
81387;BME280;70842;50.744;7.114;2024-01-30T05:58:09;102197.81;;;10.31;63.03
81387;BME280;70842;50.744;7.114;2024-01-30T06:00:35;102196.03;;;10.32;63.20
81387;BME280;70842;50.744;7.114;2024-01-30T06:03:02;102197.22;;;10.42;62.74
81387;BME280;70842;50.744;7.114;2024-01-30T06:05:28;102189.19;;;10.59;62.18
81387;BME280;70842;50.744;7.114;2024-01-30T06:07:55;102194.00;;;10.37;62.34
81387;BME280;70842;50.744;7.114;2024-01-30T06:10:21;102190.91;;;10.29;62.74
81387;BME280;70842;50.744;7.114;2024-01-30T06:12:48;102191.94;;;10.26;63.31
81387;BME280;70842;50.744;7.114;2024-01-30T06:15:14;102200.19;;;10.20;63.25
81387;BME280;70842;50.744;7.114;2024-01-30T06:17:41;102197.53;;;10.04;64.15
81387;BME280;70842;50.744;7.114;2024-01-30T06:20:07;102202.94;;;10.18;63.56
81387;BME280;70842;50.744;7.114;2024-01-30T06:22:34;102201.59;;;10.27;63.42
81387;BME280;70842;50.744;7.114;2024-01-30T06:25:00;102210.03;;;10.18;63.74
81387;BME280;70842;50.744;7.114;2024-01-30T06:27:27;102195.38;;;9.95;64.83
81387;BME280;70842;50.744;7.114;2024-01-30T06:29:53;102202.88;;;10.51;64.58
81387;BME280;70842;50.744;7.114;2024-01-30T06:32:20;102190.66;;;10.49;63.75
81387;BME280;70842;50.744;7.114;2024-01-30T06:34:46;102204.31;;;10.57;63.88
81387;BME280;70842;50.744;7.114;2024-01-30T06:37:12;102209.16;;;10.80;62.15
81387;BME280;70842;50.744;7.114;2024-01-30T06:39:39;102199.88;;;10.73;62.18
81387;BME280;70842;50.744;7.114;2024-01-30T06:42:06;102205.03;;;10.45;62.67
81387;BME280;70842;50.744;7.114;2024-01-30T06:44:33;102204.16;;;10.60;62.63
81387;BME280;70842;50.744;7.114;2024-01-30T06:46:59;102192.59;;;10.61;62.59
81387;BME280;70842;50.744;7.114;2024-01-30T06:49:25;102204.94;;;10.62;62.14
81387;BME280;70842;50.744;7.114;2024-01-30T06:51:52;102202.63;;;10.56;62.73
81387;BME280;70842;50.744;7.114;2024-01-30T06:54:18;102197.22;;;10.42;63.00
81387;BME280;70842;50.744;7.114;2024-01-30T06:56:45;102197.66;;;10.50;62.63
81387;BME280;70842;50.744;7.114;2024-01-30T06:59:12;102183.47;;;10.66;62.36
81387;BME280;70842;50.744;7.114;2024-01-30T07:01:38;102194.56;;;10.42;62.71
81387;BME280;70842;50.744;7.114;2024-01-30T07:04:05;102193.69;;;10.10;63.46
81387;BME280;70842;50.744;7.114;2024-01-30T07:06:31;102193.66;;;10.11;63.85
81387;BME280;70842;50.744;7.114;2024-01-30T07:08:58;102199.66;;;10.31;63.14
81387;BME280;70842;50.744;7.114;2024-01-30T07:11:24;102191.56;;;10.48;62.80
81387;BME280;70842;50.744;7.114;2024-01-30T07:13:51;102199.22;;;10.05;63.60
81387;BME280;70842;50.744;7.114;2024-01-30T07:16:17;102194.69;;;10.07;63.92
81387;BME280;70842;50.744;7.114;2024-01-30T07:18:44;102193.13;;;10.20;63.27
81387;BME280;70842;50.744;7.114;2024-01-30T07:21:11;102197.50;;;10.22;63.62
81387;BME280;70842;50.744;7.114;2024-01-30T07:23:38;102186.03;;;9.88;64.10
81387;BME280;70842;50.744;7.114;2024-01-30T07:26:05;102196.47;;;9.91;63.64
81387;BME280;70842;50.744;7.114;2024-01-30T07:28:33;102196.03;;;10.16;63.09
81387;BME280;70842;50.744;7.114;2024-01-30T07:31:00;102191.94;;;10.26;62.63
81387;BME280;70842;50.744;7.114;2024-01-30T07:33:26;102199.50;;;10.01;63.00
81387;BME280;70842;50.744;7.114;2024-01-30T07:35:53;102200.63;;;10.12;63.02
81387;BME280;70842;50.744;7.114;2024-01-30T07:38:20;102193.97;;;10.21;63.02
81387;BME280;70842;50.744;7.114;2024-01-30T07:40:46;102200.72;;;10.27;62.82
81387;BME280;70842;50.744;7.114;2024-01-30T07:43:13;102204.44;;;10.24;62.77
81387;BME280;70842;50.744;7.114;2024-01-30T07:45:39;102207.38;;;10.18;62.82
81387;BME280;70842;50.744;7.114;2024-01-30T07:48:06;102204.16;;;10.29;63.09
81387;BME280;70842;50.744;7.114;2024-01-30T07:50:32;102220.66;;;10.49;62.24
81387;BME280;70842;50.744;7.114;2024-01-30T07:53:00;102223.97;;;10.37;62.27
81387;BME280;70842;50.744;7.114;2024-01-30T07:55:26;102224.69;;;10.08;63.53
81387;BME280;70842;50.744;7.114;2024-01-30T07:57:59;102223.91;;;10.54;62.25
81387;BME280;70842;50.744;7.114;2024-01-30T08:00:26;102213.06;;;10.43;62.26
81387;BME280;70842;50.744;7.114;2024-01-30T08:02:53;102224.44;;;10.45;62.53
81387;BME280;70842;50.744;7.114;2024-01-30T08:05:21;102233.28;;;10.29;62.48
81387;BME280;70842;50.744;7.114;2024-01-30T08:07:51;102234.44;;;10.56;62.41
81387;BME280;70842;50.744;7.114;2024-01-30T08:10:17;102237.09;;;10.56;62.70
81387;BME280;70842;50.744;7.114;2024-01-30T08:12:47;102234.34;;;10.73;62.21
81387;BME280;70842;50.744;7.114;2024-01-30T08:15:13;102236.72;;;10.62;62.01
81387;BME280;70842;50.744;7.114;2024-01-30T08:17:40;102242.88;;;10.78;61.81
81387;BME280;70842;50.744;7.114;2024-01-30T08:20:07;102240.31;;;10.76;61.78
81387;BME280;70842;50.744;7.114;2024-01-30T08:22:35;102238.06;;;10.84;61.25
81387;BME280;70842;50.744;7.114;2024-01-30T08:25:01;102233.63;;;10.69;62.24
81387;BME280;70842;50.744;7.114;2024-01-30T08:27:28;102231.06;;;10.83;61.87
81387;BME280;70842;50.744;7.114;2024-01-30T08:29:54;102228.34;;;10.69;61.77
81387;BME280;70842;50.744;7.114;2024-01-30T08:32:20;102225.00;;;10.66;62.49
81387;BME280;70842;50.744;7.114;2024-01-30T08:34:47;102220.63;;;10.65;62.70
81387;BME280;70842;50.744;7.114;2024-01-30T08:37:13;102217.81;;;10.68;62.73
81387;BME280;70842;50.744;7.114;2024-01-30T08:39:43;102209.25;;;10.78;62.51
81387;BME280;70842;50.744;7.114;2024-01-30T08:42:10;102205.19;;;10.57;63.19
81387;BME280;70842;50.744;7.114;2024-01-30T08:44:36;102205.22;;;10.87;61.86
81387;BME280;70842;50.744;7.114;2024-01-30T08:47:03;102206.16;;;10.86;62.07
81387;BME280;70842;50.744;7.114;2024-01-30T08:49:29;102216.81;;;10.70;62.60
81387;BME280;70842;50.744;7.114;2024-01-30T08:51:56;102214.44;;;10.95;61.66
81387;BME280;70842;50.744;7.114;2024-01-30T08:54:24;102210.34;;;10.90;61.66
81387;BME280;70842;50.744;7.114;2024-01-30T08:56:50;102219.97;;;10.77;62.57
81387;BME280;70842;50.744;7.114;2024-01-30T08:59:19;102231.50;;;10.45;62.89
81387;BME280;70842;50.744;7.114;2024-01-30T09:01:45;102233.63;;;11.01;62.04
81387;BME280;70842;50.744;7.114;2024-01-30T09:04:28;102231.22;;;10.96;61.92
81387;BME280;70842;50.744;7.114;2024-01-30T09:06:55;102233.25;;;11.07;61.38
81387;BME280;70842;50.744;7.114;2024-01-30T09:09:22;102236.66;;;11.09;61.81
81387;BME280;70842;50.744;7.114;2024-01-30T09:11:48;102231.44;;;11.37;60.81
81387;BME280;70842;50.744;7.114;2024-01-30T09:14:14;102228.59;;;11.26;61.05
81387;BME280;70842;50.744;7.114;2024-01-30T09:16:41;102236.78;;;11.65;60.13
81387;BME280;70842;50.744;7.114;2024-01-30T09:19:07;102244.34;;;11.43;60.28
81387;BME280;70842;50.744;7.114;2024-01-30T09:21:34;102246.94;;;11.58;60.16
81387;BME280;70842;50.744;7.114;2024-01-30T09:24:03;102252.22;;;11.15;61.23
81387;BME280;70842;50.744;7.114;2024-01-30T09:26:30;102249.72;;;11.71;60.38
81387;BME280;70842;50.744;7.114;2024-01-30T09:28:56;102255.84;;;11.87;59.27
81387;BME280;70842;50.744;7.114;2024-01-30T09:31:23;102266.06;;;12.07;58.77
81387;BME280;70842;50.744;7.114;2024-01-30T09:33:50;102256.81;;;12.00;59.10
81387;BME280;70842;50.744;7.114;2024-01-30T09:36:17;102252.97;;;12.32;58.29
81387;BME280;70842;50.744;7.114;2024-01-30T09:38:46;102262.63;;;12.47;57.73
81387;BME280;70842;50.744;7.114;2024-01-30T09:41:12;102276.41;;;12.26;57.97
81387;BME280;70842;50.744;7.114;2024-01-30T09:43:39;102271.53;;;12.61;57.61
81387;BME280;70842;50.744;7.114;2024-01-30T09:46:07;102285.59;;;12.63;57.31
81387;BME280;70842;50.744;7.114;2024-01-30T09:48:37;102275.38;;;12.83;56.81
81387;BME280;70842;50.744;7.114;2024-01-30T09:51:04;102277.66;;;12.89;56.56
81387;BME280;70842;50.744;7.114;2024-01-30T09:53:31;102284.19;;;13.24;56.28
81387;BME280;70842;50.744;7.114;2024-01-30T09:55:58;102275.75;;;13.18;56.16
81387;BME280;70842;50.744;7.114;2024-01-30T09:58:24;102268.78;;;13.29;55.96
81387;BME280;70842;50.744;7.114;2024-01-30T10:00:51;102274.69;;;13.72;55.19
81387;BME280;70842;50.744;7.114;2024-01-30T10:03:18;102275.03;;;13.28;56.13
81387;BME280;70842;50.744;7.114;2024-01-30T10:05:51;102280.69;;;13.37;55.46
81387;BME280;70842;50.744;7.114;2024-01-30T10:08:20;102279.13;;;13.47;55.62
81387;BME280;70842;50.744;7.114;2024-01-30T10:10:47;102286.97;;;13.23;56.30
81387;BME280;70842;50.744;7.114;2024-01-30T10:13:14;102285.50;;;13.32;55.94
81387;BME280;70842;50.744;7.114;2024-01-30T10:15:41;102284.59;;;13.18;56.22
81387;BME280;70842;50.744;7.114;2024-01-30T10:18:10;102284.81;;;13.01;57.26
81387;BME280;70842;50.744;7.114;2024-01-30T10:20:37;102290.38;;;13.25;56.14
81387;BME280;70842;50.744;7.114;2024-01-30T10:23:03;102283.94;;;13.15;56.33
81387;BME280;70842;50.744;7.114;2024-01-30T10:25:33;102278.94;;;12.96;56.50
81387;BME280;70842;50.744;7.114;2024-01-30T10:28:00;102288.03;;;13.20;56.06
81387;BME280;70842;50.744;7.114;2024-01-30T10:30:27;102287.94;;;13.35;55.79
81387;BME280;70842;50.744;7.114;2024-01-30T10:32:54;102283.34;;;13.24;55.65
81387;BME280;70842;50.744;7.114;2024-01-30T10:35:20;102283.44;;;13.22;56.57
81387;BME280;70842;50.744;7.114;2024-01-30T10:37:47;102285.53;;;13.17;55.88
81387;BME280;70842;50.744;7.114;2024-01-30T10:40:14;102283.41;;;13.10;56.06
81387;BME280;70842;50.744;7.114;2024-01-30T10:42:45;102294.16;;;13.08;55.77
81387;BME280;70842;50.744;7.114;2024-01-30T10:45:13;102279.50;;;12.61;57.34
81387;BME280;70842;50.744;7.114;2024-01-30T10:47:42;102282.34;;;12.72;57.89
81387;BME280;70842;50.744;7.114;2024-01-30T10:50:10;102285.19;;;12.83;57.18
81387;BME280;70842;50.744;7.114;2024-01-30T10:52:37;102282.31;;;12.86;57.31
81387;BME280;70842;50.744;7.114;2024-01-30T10:55:05;102286.63;;;12.60;58.14
81387;BME280;70842;50.744;7.114;2024-01-30T10:57:34;102294.00;;;12.83;57.42
81387;BME280;70842;50.744;7.114;2024-01-30T11:00:08;102276.50;;;12.93;56.90
81387;BME280;70842;50.744;7.114;2024-01-30T11:02:43;102277.78;;;12.74;57.48
81387;BME280;70842;50.744;7.114;2024-01-30T11:05:11;102274.84;;;12.78;57.25
81387;BME280;70842;50.744;7.114;2024-01-30T11:07:41;102271.31;;;12.78;58.08
81387;BME280;70842;50.744;7.114;2024-01-30T11:10:08;102264.13;;;12.92;58.05
81387;BME280;70842;50.744;7.114;2024-01-30T11:12:40;102269.69;;;12.89;57.93
81387;BME280;70842;50.744;7.114;2024-01-30T11:15:14;102263.31;;;12.78;58.01
81387;BME280;70842;50.744;7.114;2024-01-30T11:17:53;102266.75;;;12.80;57.75
81387;BME280;70842;50.744;7.114;2024-01-30T11:20:29;102260.09;;;12.73;57.52
81387;BME280;70842;50.744;7.114;2024-01-30T11:22:59;102251.25;;;12.86;57.52
81387;BME280;70842;50.744;7.114;2024-01-30T11:25:28;102253.16;;;12.84;57.56
81387;BME280;70842;50.744;7.114;2024-01-30T11:27:55;102253.63;;;12.77;57.37
81387;BME280;70842;50.744;7.114;2024-01-30T11:30:29;102244.81;;;12.76;58.29
81387;BME280;70842;50.744;7.114;2024-01-30T11:33:05;102245.03;;;13.00;57.21
81387;BME280;70842;50.744;7.114;2024-01-30T11:35:36;102239.84;;;12.84;57.24
81387;BME280;70842;50.744;7.114;2024-01-30T11:38:04;102252.19;;;12.85;57.28
81387;BME280;70842;50.744;7.114;2024-01-30T11:40:31;102239.09;;;12.82;57.27
81387;BME280;70842;50.744;7.114;2024-01-30T11:43:00;102240.31;;;12.91;57.14
81387;BME280;70842;50.744;7.114;2024-01-30T11:45:28;102241.50;;;12.99;56.89
81387;BME280;70842;50.744;7.114;2024-01-30T11:47:55;102242.09;;;13.17;56.34
81387;BME280;70842;50.744;7.114;2024-01-30T11:50:21;102241.81;;;13.34;56.26
81387;BME280;70842;50.744;7.114;2024-01-30T11:52:48;102235.13;;;13.28;56.66
81387;BME280;70842;50.744;7.114;2024-01-30T11:55:15;102240.09;;;13.20;56.39
81387;BME280;70842;50.744;7.114;2024-01-30T11:57:42;102242.50;;;13.50;55.81
81387;BME280;70842;50.744;7.114;2024-01-30T12:00:17;102244.72;;;13.31;56.37
81387;BME280;70842;50.744;7.114;2024-01-30T12:02:52;102233.34;;;13.42;56.19
81387;BME280;70842;50.744;7.114;2024-01-30T12:05:22;102232.66;;;13.25;56.60
81387;BME280;70842;50.744;7.114;2024-01-30T12:07:49;102228.16;;;13.13;57.09
81387;BME280;70842;50.744;7.114;2024-01-30T12:10:16;102236.31;;;13.50;56.73
81387;BME280;70842;50.744;7.114;2024-01-30T12:12:47;102237.50;;;13.58;56.34
81387;BME280;70842;50.744;7.114;2024-01-30T12:15:14;102225.22;;;13.43;56.13
81387;BME280;70842;50.744;7.114;2024-01-30T12:17:41;102232.72;;;13.63;55.73
81387;BME280;70842;50.744;7.114;2024-01-30T12:20:15;102228.88;;;13.67;55.58
81387;BME280;70842;50.744;7.114;2024-01-30T12:22:46;102233.75;;;13.36;56.54
81387;BME280;70842;50.744;7.114;2024-01-30T12:25:15;102232.91;;;13.48;56.27
81387;BME280;70842;50.744;7.114;2024-01-30T12:27:44;102234.41;;;13.77;55.77
81387;BME280;70842;50.744;7.114;2024-01-30T12:30:13;102235.56;;;13.98;55.68
81387;BME280;70842;50.744;7.114;2024-01-30T12:32:41;102239.09;;;13.98;54.66
81387;BME280;70842;50.744;7.114;2024-01-30T12:35:17;102235.03;;;14.18;54.36
81387;BME280;70842;50.744;7.114;2024-01-30T12:37:45;102239.41;;;14.32;54.30
81387;BME280;70842;50.744;7.114;2024-01-30T12:40:14;102242.81;;;13.96;54.49
81387;BME280;70842;50.744;7.114;2024-01-30T12:42:42;102243.25;;;13.90;54.96
81387;BME280;70842;50.744;7.114;2024-01-30T12:45:18;102251.06;;;13.93;54.88
81387;BME280;70842;50.744;7.114;2024-01-30T12:47:49;102254.66;;;13.67;55.17
81387;BME280;70842;50.744;7.114;2024-01-30T12:50:16;102262.78;;;13.90;55.45